METAR AND TAF INFORMATION
METAR FOR LFLP
ADDS - METARS form results

(2326 UTC 15 February 2019)
Data provider http://aviationweather.gov/metar/data/
 
METAR text: LFLP 152300Z AUTO 04004KT CAVOK 01/M02 Q1030
Conditions at: LFLP (ANNECY/MEYTHET , FR) observed 2300 UTC 15 February 2019
Temperature: 1.0°C (34°F)
Dewpoint: -2.0°C (28°F) [RH = 80%]
Pressure (altimeter): 30.41 inches Hg (1030.0 mb)
Winds: from the NE (40 degrees) at 5 MPH (4 knots; 2.1 m/s)
Visibility: 6 or more miles (10+ km)
Ceiling: ceiling and visibility are OK
Clouds: unknown
Weather: no significant weather observed at this time

METAR text: LFLP 152230Z AUTO 04003KT CAVOK 01/M01 Q1030
Conditions at: LFLP (ANNECY/MEYTHET , FR) observed 2230 UTC 15 February 2019
Temperature: 1.0°C (34°F)
Dewpoint: -1.0°C (30°F) [RH = 86%]
Pressure (altimeter): 30.41 inches Hg (1030.0 mb)
Winds: from the NE (40 degrees) at 3 MPH (3 knots; 1.5 m/s)
Visibility: 6 or more miles (10+ km)
Ceiling: ceiling and visibility are OK
Clouds: unknown
Weather: no significant weather observed at this time

Forecast for: LFLP (ANNECY/MEYTHET , FR)
Text: TAF LFLP 151400Z 1515/1615 VRB03KT CAVOK
Forecast period: 1500 UTC 15 February 2019 to 1500 UTC 16 February 2019
Forecast type: FROM: standard forecast or significant change
Winds: variable direction winds at 3 MPH (3 knots; 1.5 m/s)
Visibility: 6 or more miles 10+ km)
Ceiling: unknown
Clouds: missing
Weather: NSW  (no significant weather)
Text: PROB30
Forecast period: 0400 to 0700 UTC 16 February 2019
Forecast type: TEMPORARY: The following changes expected for less than half the time period
Visibility: 2.80 miles (4.51 km)
Ceiling: unknown
Clouds: missing
Weather: BR  (mist)

 AIRPORT MAP

 RUNWAY INFORMATION
Runway 04 Runway length 5348 ft Runway width 98 ft
Runway elevation 1489 ft Runway displaced threshold 820 ft Runway heading 39
Runway 22 Runway length 5348 ft Runway width 98 ft
Runway elevation 1516 ft Runway displaced threshold 755 ft Runway heading 219

 AIRPORT FREQUENCIES
Type AFIS Name INFO Frequency 118.2 MHZ
Type APP Name CHAMBERY A Frequency 123.7 MHZ
Type TWR Name ANNECY TWR Frequency 118.2 MHZ

 AIRPORT NEAR NAVIGATION AIDS



Powered by Virtual Airlines Manager [v2.6.2]